Time;durP1;ratioP1;P1;durP2;ratioP2;P2;SDS_P1;SDS_P2;PMS_P1;PMS_P2;Temp;Humidity;BMP_temperature;BMP_pressure;BME280_temperature;BME280_humidity;BME280_pressure;Samples;Min_cycle;Max_cycle;Signal;HPM_P1;HPM_P2
2022/03/04 00:02:39;;;;;;;12.50;9.40;;;22.50;47.40;;;;;;220160;1265;24219;-55
2022/03/04 00:07:44;;;;;;;11.40;8.40;;;22.50;47.40;;;;;;220392;1268;22538;-56
2022/03/04 00:12:49;;;;;;;14.70;9.20;;;22.40;47.40;;;;;;220235;1267;24309;-55
2022/03/04 00:17:53;;;;;;;15.10;9.10;;;22.30;47.40;;;;;;220340;1267;22619;-55
2022/03/04 00:22:57;;;;;;;12.10;8.40;;;22.30;47.30;;;;;;220014;1267;27509;-56
2022/03/04 00:28:01;;;;;;;12.90;9.00;;;22.40;47.20;;;;;;220110;1267;24217;-54
2022/03/04 00:33:05;;;;;;;13.60;9.30;;;22.40;47.30;;;;;;220110;1268;23038;-56
2022/03/04 00:38:09;;;;;;;12.60;8.50;;;22.90;46.20;;;;;;220294;1267;22522;-55
2022/03/04 00:43:12;;;;;;;12.60;8.80;;;23.20;45.50;;;;;;220220;1267;22538;-56
2022/03/04 00:48:16;;;;;;;13.30;9.10;;;23.50;45.00;;;;;;220595;1268;25528;-53
2022/03/04 00:53:20;;;;;;;12.90;9.30;;;23.70;45.10;;;;;;220227;1268;23448;-56
2022/03/04 00:58:24;;;;;;;13.60;8.90;;;23.90;44.60;;;;;;220158;1267;24219;-55
2022/03/04 01:03:28;;;;;;;13.00;9.10;;;23.90;44.70;;;;;;220431;1267;26723;-54
2022/03/04 01:08:32;;;;;;;13.80;9.70;;;24.00;44.70;;;;;;220590;1267;25382;-54
2022/03/04 01:13:37;;;;;;;12.50;9.00;;;24.10;44.80;;;;;;220403;1267;22548;-56
2022/03/04 01:18:40;;;;;;;12.10;9.20;;;24.10;44.70;;;;;;220329;1267;22952;-57
2022/03/04 01:23:44;;;;;;;13.60;9.10;;;24.20;44.90;;;;;;220023;1268;23247;-55
2022/03/04 01:28:48;;;;;;;14.10;9.50;;;24.20;44.60;;;;;;220108;1267;24318;-56
2022/03/04 01:33:53;;;;;;;13.00;8.90;;;24.30;44.50;;;;;;220266;1267;25504;-56
2022/03/04 01:38:56;;;;;;;12.20;8.60;;;24.20;44.70;;;;;;220283;1267;22648;-55
2022/03/04 01:44:00;;;;;;;14.50;9.30;;;24.00;45.20;;;;;;220130;1267;22543;-56
2022/03/04 01:49:05;;;;;;;13.40;9.50;;;23.90;45.60;;;;;;220372;1267;24236;-56
2022/03/04 01:54:09;;;;;;;13.40;8.70;;;23.80;46.40;;;;;;220034;1267;22546;-56
2022/03/04 01:59:13;;;;;;;12.90;9.20;;;23.60;46.60;;;;;;220524;1267;25664;-55
2022/03/04 02:04:19;;;;;;;14.20;9.60;;;23.50;46.30;;;;;;220180;1267;22606;-55
2022/03/04 02:09:23;;;;;;;12.20;9.70;;;23.30;46.70;;;;;;220105;1267;22545;-56
2022/03/04 02:14:27;;;;;;;13.50;9.10;;;23.30;46.80;;;;;;220131;1267;25334;-54
2022/03/04 02:19:31;;;;;;;10.40;8.30;;;23.20;47.20;;;;;;219981;1267;24298;-53
2022/03/04 02:24:35;;;;;;;12.00;9.10;;;23.10;46.80;;;;;;220127;1267;22554;-57
2022/03/04 02:29:39;;;;;;;13.20;9.00;;;23.00;46.80;;;;;;220629;1267;23041;-53
2022/03/04 02:34:42;;;;;;;14.30;9.40;;;23.00;46.90;;;;;;220257;1267;24345;-57
2022/03/04 02:39:51;;;;;;;12.80;9.20;;;22.90;46.80;;;;;;220137;1268;25241;-55
2022/03/04 02:45:05;;;;;;;11.80;8.40;;;22.90;47.00;;;;;;220512;1267;24431;-55
2022/03/04 02:50:11;;;;;;;15.00;8.50;;;22.80;46.90;;;;;;219979;1267;25243;-55
2022/03/04 02:55:15;;;;;;;11.60;8.70;;;22.80;46.90;;;;;;220512;1267;27020;-56
2022/03/04 03:00:19;;;;;;;12.30;8.60;;;22.70;46.90;;;;;;220205;1267;24076;-56
2022/03/04 03:05:23;;;;;;;11.70;8.40;;;22.60;46.90;;;;;;220082;1267;22730;-56
2022/03/04 03:10:26;;;;;;;11.50;8.30;;;22.60;46.90;;;;;;220508;1267;23907;-55
2022/03/04 03:15:30;;;;;;;13.10;8.50;;;22.50;47.50;;;;;;220373;1267;25251;-55
2022/03/04 03:20:34;;;;;;;12.90;8.50;;;22.40;47.10;;;;;;220076;1266;25511;-52
2022/03/04 03:25:38;;;;;;;12.70;8.60;;;22.40;47.50;;;;;;220248;1267;27506;-54
2022/03/04 03:30:42;;;;;;;11.30;8.50;;;22.30;47.40;;;;;;220526;1267;25503;-54
2022/03/04 03:35:46;;;;;;;11.60;9.10;;;22.30;47.20;;;;;;220093;1267;22545;-57
2022/03/04 03:40:53;;;;;;;13.00;9.10;;;22.20;47.10;;;;;;220222;1267;25375;-55
2022/03/04 03:46:14;;;;;;;11.50;8.00;;;22.20;47.20;;;;;;220107;1267;25920;-55
2022/03/04 03:51:18;;;;;;;9.70;7.10;;;22.30;47.20;;;;;;220214;1266;24572;-55
2022/03/04 03:56:24;;;;;;;11.00;8.00;;;22.60;46.60;;;;;;220106;1267;24454;-57
2022/03/04 04:01:27;;;;;;;11.20;8.20;;;22.90;46.30;;;;;;220336;1266;25372;-54
2022/03/04 04:06:31;;;;;;;11.40;7.50;;;23.20;45.00;;;;;;220623;1267;22603;-57
2022/03/04 04:11:37;;;;;;;9.60;7.00;;;23.40;45.00;;;;;;220205;1267;22521;-56
2022/03/04 04:16:41;;;;;;;10.10;7.70;;;23.50;44.80;;;;;;220416;1267;25652;-56
2022/03/04 04:21:45;;;;;;;10.80;7.50;;;23.50;44.50;;;;;;220463;1267;22831;-54
2022/03/04 04:26:49;;;;;;;10.70;7.20;;;23.60;44.40;;;;;;220080;1267;25499;-55
2022/03/04 04:31:53;;;;;;;12.00;8.30;;;23.60;44.30;;;;;;220711;1267;25174;-54
2022/03/04 04:37:07;;;;;;;11.30;7.30;;;23.70;44.10;;;;;;220272;1267;22653;-52
2022/03/04 04:42:10;;;;;;;10.50;7.40;;;23.70;43.90;;;;;;220763;1267;23022;-56
2022/03/04 04:47:14;;;;;;;9.10;7.10;;;23.80;43.70;;;;;;220371;1266;24256;-55
2022/03/04 04:52:18;;;;;;;9.30;7.40;;;23.80;43.60;;;;;;220230;1267;25409;-58
2022/03/04 04:57:22;;;;;;;9.30;7.20;;;23.80;43.90;;;;;;220529;1267;23921;-56
2022/03/04 05:02:27;;;;;;;11.40;7.10;;;23.80;43.20;;;;;;220188;1267;22526;-56
2022/03/04 05:07:31;;;;;;;9.20;6.80;;;23.90;43.50;;;;;;220008;1267;24293;-57
2022/03/04 05:12:35;;;;;;;8.50;6.30;;;23.90;43.50;;;;;;220298;1267;25533;-53
2022/03/04 05:17:38;;;;;;;10.70;7.00;;;23.90;43.40;;;;;;220407;1267;24390;-55
2022/03/04 05:22:42;;;;;;;8.60;6.60;;;24.00;43.70;;;;;;220360;1267;22857;-56
2022/03/04 05:27:46;;;;;;;9.70;7.10;;;24.00;43.40;;;;;;220649;1267;25651;-56
2022/03/04 05:32:50;;;;;;;9.30;7.30;;;24.00;43.30;;;;;;221314;1266;25549;-59
2022/03/04 05:37:53;;;;;;;11.90;7.00;;;24.10;43.20;;;;;;221184;1267;24262;-56
2022/03/04 05:42:57;;;;;;;10.80;7.70;;;24.10;43.20;;;;;;220635;1267;25257;-59
2022/03/04 05:48:01;;;;;;;10.80;6.90;;;24.10;43.20;;;;;;220015;1267;22551;-55
2022/03/04 05:53:04;;;;;;;11.20;7.30;;;24.10;43.50;;;;;;220435;1267;22745;-56
2022/03/04 05:58:08;;;;;;;9.40;7.00;;;24.10;43.10;;;;;;220093;1267;25729;-57
2022/03/04 06:03:12;;;;;;;10.30;7.20;;;24.20;43.00;;;;;;220125;1267;25413;-55
2022/03/04 06:08:18;;;;;;;9.50;6.80;;;24.30;43.20;;;;;;220201;1267;25453;-54
2022/03/04 06:13:21;;;;;;;10.80;6.60;;;24.30;42.70;;;;;;220415;1267;26481;-55
2022/03/04 06:18:25;;;;;;;9.70;7.00;;;24.30;42.60;;;;;;220090;1267;24255;-56
2022/03/04 06:23:29;;;;;;;9.00;6.70;;;24.30;43.20;;;;;;220434;1267;22780;-55
2022/03/04 06:28:32;;;;;;;10.20;6.80;;;24.10;43.30;;;;;;220153;1267;24120;-58
2022/03/04 06:33:38;;;;;;;9.00;7.30;;;24.00;43.40;;;;;;220198;1267;22535;-57
2022/03/04 06:38:45;;;;;;;9.90;7.10;;;23.90;43.50;;;;;;220086;1266;22575;-57
2022/03/04 06:43:50;;;;;;;10.20;7.20;;;23.70;43.80;;;;;;219990;1267;22619;-57
2022/03/04 06:48:54;;;;;;;11.40;6.60;;;23.50;44.40;;;;;;220312;1267;24428;-56
2022/03/04 06:53:58;;;;;;;10.10;7.10;;;23.40;44.30;;;;;;220369;1267;24432;-55
2022/03/04 06:59:07;;;;;;;10.30;7.10;;;23.20;44.70;;;;;;220522;1267;24037;-54
2022/03/04 07:04:14;;;;;;;11.90;7.20;;;23.10;45.10;;;;;;220282;1267;25621;-54
2022/03/04 07:09:18;;;;;;;13.30;7.20;;;23.10;44.90;;;;;;220139;1265;22782;-55
2022/03/04 07:14:27;;;;;;;9.50;6.70;;;23.00;45.00;;;;;;219954;1267;25539;-58
2022/03/04 07:19:31;;;;;;;12.10;6.70;;;22.90;45.20;;;;;;219961;1265;25571;-56
2022/03/04 07:24:35;;;;;;;9.70;7.00;;;22.90;45.40;;;;;;220077;1267;25579;-54
2022/03/04 07:29:41;;;;;;;9.40;6.80;;;22.90;45.50;;;;;;220230;1267;22664;-57
2022/03/04 07:34:47;;;;;;;9.20;7.30;;;22.80;46.10;;;;;;220091;1265;24312;-52
2022/03/04 07:39:52;;;;;;;15.50;6.60;;;22.80;45.80;;;;;;220720;1264;22564;-56
2022/03/04 07:44:56;;;;;;;12.00;7.20;;;22.80;46.20;;;;;;220294;1267;22527;-53
2022/03/04 07:50:00;;;;;;;12.20;6.70;;;22.60;46.40;;;;;;219824;1264;22518;-57
2022/03/04 07:55:09;;;;;;;12.50;7.30;;;22.60;46.80;;;;;;219910;1265;25565;-56
2022/03/04 08:00:15;;;;;;;10.50;6.20;;;22.50;47.00;;;;;;219966;1265;23861;-56
2022/03/04 08:05:21;;;;;;;12.30;6.80;;;22.40;47.30;;;;;;220253;1267;22560;-57
2022/03/04 08:10:25;;;;;;;10.00;7.00;;;22.50;47.40;;;;;;220100;1265;24073;-57
2022/03/04 08:15:31;;;;;;;11.70;7.10;;;22.50;47.30;;;;;;219934;1267;25510;-55
2022/03/04 08:20:36;;;;;;;10.10;6.60;;;22.50;48.10;;;;;;220049;1266;25294;-57
2022/03/04 08:25:40;;;;;;;18.50;7.10;;;22.50;47.80;;;;;;219708;1267;23919;-57
2022/03/04 08:30:44;;;;;;;11.40;7.10;;;22.40;48.10;;;;;;221940;1265;22613;-56
2022/03/04 08:35:48;;;;;;;11.20;6.70;;;22.30;47.60;;;;;;220033;1267;25487;-56
2022/03/04 08:40:55;;;;;;;12.80;7.60;;;22.30;47.50;;;;;;219989;1267;22548;-56
2022/03/04 08:45:59;;;;;;;15.90;7.20;;;22.50;47.40;;;;;;219764;1264;22545;-56
2022/03/04 08:51:03;;;;;;;19.90;7.30;;;22.90;46.70;;;;;;220069;1267;22538;-57
2022/03/04 08:56:12;;;;;;;14.70;6.90;;;23.20;46.20;;;;;;219730;1267;22600;-53
2022/03/04 09:01:15;;;;;;;33.20;9.20;;;23.30;45.60;;;;;;219248;1267;24299;-58
2022/03/04 09:06:21;;;;;;;17.30;8.10;;;23.50;45.30;;;;;;227892;1266;22356;-59
2022/03/04 09:11:25;;;;;;;23.70;8.60;;;23.50;45.00;;;;;;227854;1266;22449;-59
2022/03/04 09:16:29;;;;;;;13.70;8.10;;;23.60;44.90;;;;;;227878;1270;23145;-56
2022/03/04 09:21:33;;;;;;;13.30;7.70;;;23.60;44.80;;;;;;227884;1266;22139;-56
2022/03/04 09:26:37;;;;;;;17.50;8.80;;;23.70;44.30;;;;;;227895;1269;22431;-54
2022/03/04 09:31:40;;;;;;;18.10;8.60;;;23.90;45.10;;;;;;227555;1267;491914;-56
2022/03/04 09:36:45;;;;;;;19.70;7.60;;;23.90;45.40;;;;;;227963;1269;22375;-56
2022/03/04 09:41:49;;;;;;;19.30;8.80;;;23.90;45.40;;;;;;227857;1269;22408;-57
2022/03/04 09:46:53;;;;;;;15.60;8.30;;;24.00;45.00;;;;;;222714;1268;22650;-58
2022/03/04 09:52:00;;;;;;;17.20;9.20;;;23.90;45.00;;;;;;228037;1269;23148;-59
2022/03/04 09:57:04;;;;;;;14.20;8.10;;;23.90;44.90;;;;;;228035;1267;23746;-59
2022/03/04 10:02:11;;;;;;;14.80;7.70;;;23.90;45.00;;;;;;227674;1267;22401;-59
2022/03/04 10:07:19;;;;;;;17.70;8.20;;;24.00;44.50;;;;;;227945;1269;22362;-59
2022/03/04 10:12:46;;;;;;;14.60;9.30;;;24.00;44.10;;;;;;228062;1268;22358;-59
2022/03/04 10:18:04;;;;;;;15.90;7.70;;;24.10;44.00;;;;;;227823;1266;22386;-59
2022/03/04 10:23:17;;;;;;;13.10;8.40;;;24.10;44.60;;;;;;228010;1267;22383;-59
2022/03/04 10:28:26;;;;;;;15.70;8.10;;;24.10;43.70;;;;;;227903;1270;23165;-58
2022/03/04 10:33:30;;;;;;;15.10;7.80;;;24.20;43.60;;;;;;227985;1265;22357;-58
2022/03/04 10:38:35;;;;;;;10.70;7.70;;;24.30;43.40;;;;;;227964;1267;22476;-59
2022/03/04 10:43:40;;;;;;;14.70;8.20;;;24.30;43.20;;;;;;227147;1268;24319;-57
2022/03/04 10:48:57;;;;;;;13.40;8.00;;;24.20;43.20;;;;;;227847;1267;22255;-59
2022/03/04 10:54:16;;;;;;;12.20;8.20;;;24.10;43.20;;;;;;227895;1270;23517;-58
2022/03/04 10:59:24;;;;;;;13.90;7.70;;;24.00;43.40;;;;;;227984;1269;22539;-56
2022/03/04 11:04:27;;;;;;;15.60;9.00;;;23.90;43.50;;;;;;227880;1270;22487;-57
2022/03/04 11:09:31;;;;;;;12.50;8.50;;;23.80;43.60;;;;;;227939;1267;23142;-55
2022/03/04 11:14:35;;;;;;;13.50;8.10;;;23.70;43.90;;;;;;228036;1269;22332;-56
2022/03/04 11:19:39;;;;;;;10.20;7.60;;;23.60;44.00;;;;;;227998;1267;22366;-55
2022/03/04 11:24:44;;;;;;;13.70;8.10;;;23.60;44.00;;;;;;227955;1267;22536;-54
2022/03/04 11:29:47;;;;;;;14.60;8.20;;;23.60;44.00;;;;;;227919;1267;23223;-55
2022/03/04 11:34:51;;;;;;;16.90;8.90;;;23.30;44.20;;;;;;223823;1267;26698;-57
2022/03/04 11:40:32;;;;;;;11.50;8.30;;;23.20;44.50;;;;;;219499;1267;23473;-57
2022/03/04 11:45:32;;;;;;;14.80;8.20;;;23.10;44.80;;;;;;228255;1269;22256;-57
2022/03/04 11:50:52;;;;;;;12.80;6.90;;;23.00;45.00;;;;;;220299;1267;22606;-51
2022/03/04 11:56:11;;;;;;;11.90;8.10;;;23.00;44.80;;;;;;220185;1267;22551;-54
2022/03/04 12:01:16;;;;;;;11.20;7.10;;;23.00;44.80;;;;;;220505;1267;22530;-52
2022/03/04 12:06:24;;;;;;;11.80;7.10;;;23.00;45.10;;;;;;220254;1267;25294;-55
2022/03/04 12:11:29;;;;;;;13.10;7.30;;;22.90;45.30;;;;;;220112;1265;25251;-55
2022/03/04 12:16:51;;;;;;;10.30;7.60;;;22.90;45.10;;;;;;220238;1267;25429;-57
2022/03/04 12:22:01;;;;;;;9.80;7.10;;;22.80;45.50;;;;;;220317;1267;24363;-53
2022/03/04 12:27:05;;;;;;;11.80;7.60;;;22.80;45.70;;;;;;220300;1266;25586;-51
2022/03/04 12:32:09;;;;;;;13.20;7.50;;;22.70;45.20;;;;;;220207;1267;22623;-54
2022/03/04 12:37:14;;;;;;;11.90;7.40;;;22.70;45.70;;;;;;220464;1268;24458;-53
2022/03/04 12:42:18;;;;;;;13.80;7.10;;;22.60;45.40;;;;;;220212;1268;23783;-52
2022/03/04 12:47:22;;;;;;;13.70;7.90;;;22.50;45.50;;;;;;220359;1268;24260;-51
2022/03/04 12:52:25;;;;;;;10.30;7.90;;;22.40;45.70;;;;;;220099;1271;24218;-54
2022/03/04 12:57:29;;;;;;;11.30;7.20;;;22.40;46.00;;;;;;220173;1268;24237;-54
2022/03/04 13:02:37;;;;;;;17.30;7.70;;;22.60;45.50;;;;;;220115;1267;22614;-55
2022/03/04 13:07:41;;;;;;;11.80;7.20;;;23.00;44.50;;;;;;220181;1267;22582;-54
2022/03/04 13:12:59;;;;;;;12.40;7.10;;;23.20;44.00;;;;;;219974;1267;23283;-50
2022/03/04 13:18:04;;;;;;;11.10;7.30;;;23.40;43.60;;;;;;219819;1268;25515;-53
2022/03/04 13:23:08;;;;;;;9.10;6.70;;;23.50;43.80;;;;;;219821;1267;24062;-50
2022/03/04 13:28:11;;;;;;;9.70;6.40;;;23.60;43.50;;;;;;221339;1267;24263;-53
2022/03/04 13:33:16;;;;;;;11.20;6.80;;;23.70;43.00;;;;;;219861;1268;26884;-53
2022/03/04 13:38:21;;;;;;;10.90;6.90;;;23.80;42.80;;;;;;220260;1267;22648;-55
2022/03/04 13:43:27;;;;;;;8.50;6.60;;;23.80;42.70;;;;;;220273;1267;22643;-51
2022/03/04 13:48:33;;;;;;;11.90;6.60;;;23.80;42.70;;;;;;220228;1269;23873;-54
2022/03/04 13:53:55;;;;;;;8.70;5.90;;;23.90;42.60;;;;;;219907;1269;22989;-50
2022/03/04 13:59:06;;;;;;;10.30;6.50;;;23.90;42.90;;;;;;220119;1268;22681;-53
2022/03/04 14:04:11;;;;;;;8.40;5.20;;;24.00;43.50;;;;;;221726;1268;24453;-53
2022/03/04 14:09:19;;;;;;;10.60;6.00;;;23.90;42.90;;;;;;220579;1268;22680;-54
2022/03/04 14:14:32;;;;;;;9.00;6.10;;;24.10;43.00;;;;;;220652;1265;25592;-52
2022/03/04 14:19:39;;;;;;;7.70;5.70;;;24.10;43.30;;;;;;220134;1265;23245;-51
2022/03/04 14:24:44;;;;;;;14.00;6.80;;;24.10;42.80;;;;;;220247;1268;26924;-54
2022/03/04 14:29:53;;;;;;;9.20;5.70;;;24.10;42.30;;;;;;220370;1271;25399;-52
2022/03/04 14:35:01;;;;;;;15.90;6.20;;;24.10;42.40;;;;;;220606;1268;23107;-53
2022/03/04 14:40:07;;;;;;;12.80;5.90;;;24.20;43.40;;;;;;220718;1266;22533;-51
2022/03/04 14:45:17;;;;;;;13.90;6.10;;;24.10;44.00;;;;;;220518;1265;22522;-50
2022/03/04 14:50:29;;;;;;;16.40;6.40;;;24.00;44.80;;;;;;220219;1268;22544;-53
2022/03/04 14:55:34;;;;;;;10.80;5.90;;;23.90;45.10;;;;;;220355;1268;22553;-54
2022/03/04 15:00:39;;;;;;;7.80;5.50;;;23.70;45.60;;;;;;220300;1268;24378;-50
2022/03/04 15:05:44;;;;;;;11.70;6.10;;;23.50;45.80;;;;;;220679;1267;22526;-51
2022/03/04 15:10:52;;;;;;;13.10;5.90;;;23.30;46.00;;;;;;220428;1268;22606;-52
2022/03/04 15:16:01;;;;;;;10.10;5.50;;;23.20;45.90;;;;;;220281;1268;22765;-53
2022/03/04 15:21:13;;;;;;;12.20;5.30;;;23.10;45.90;;;;;;220313;1268;22562;-50
2022/03/04 15:26:17;;;;;;;11.60;5.80;;;23.00;46.20;;;;;;220373;1271;22859;-53
2022/03/04 15:31:21;;;;;;;9.60;5.80;;;22.90;46.40;;;;;;220119;1268;22534;-56
2022/03/04 15:36:25;;;;;;;9.20;5.60;;;22.90;46.20;;;;;;220517;1268;25388;-55
2022/03/04 15:41:29;;;;;;;9.50;5.20;;;22.80;46.50;;;;;;220373;1268;25482;-51
2022/03/04 15:46:33;;;;;;;7.10;4.80;;;22.80;46.50;;;;;;220199;1268;24726;-54
2022/03/04 15:51:38;;;;;;;8.20;5.20;;;22.70;46.10;;;;;;220100;1268;22935;-52
2022/03/04 15:56:42;;;;;;;9.20;5.10;;;22.70;45.90;;;;;;220423;1268;22547;-53
2022/03/04 16:01:47;;;;;;;7.20;4.80;;;22.70;45.80;;;;;;220653;1268;22526;-55
2022/03/04 16:06:52;;;;;;;9.20;5.10;;;22.80;45.90;;;;;;220229;1268;22706;-52
2022/03/04 16:12:02;;;;;;;9.20;4.90;;;22.60;46.00;;;;;;220468;1268;22535;-54
2022/03/04 16:17:28;;;;;;;10.70;5.30;;;22.70;45.90;;;;;;220537;1268;24300;-52
2022/03/04 16:22:41;;;;;;;8.60;4.70;;;22.60;45.70;;;;;;220415;1267;22524;-54
2022/03/04 16:27:46;;;;;;;9.30;4.70;;;22.40;46.10;;;;;;220300;1265;22555;-53
2022/03/04 16:32:50;;;;;;;7.10;5.00;;;22.30;46.30;;;;;;220258;1267;24572;-55
2022/03/04 16:37:55;;;;;;;6.50;4.50;;;22.30;46.40;;;;;;220663;1265;22706;-51
2022/03/04 16:43:07;;;;;;;9.70;4.70;;;22.30;46.30;;;;;;220300;1267;22550;-54
2022/03/04 16:48:19;;;;;;;;;;;22.50;45.70;;;;;;220269;1265;24225;-55
2022/03/04 16:53:26;;;;;;;7.90;4.70;;;22.90;44.80;;;;;;220424;1267;22533;-55
2022/03/04 16:58:31;;;;;;;6.80;4.20;;;23.20;44.40;;;;;;220390;1267;22597;-54
2022/03/04 17:03:41;;;;;;;9.90;4.70;;;23.40;43.90;;;;;;220651;1267;22869;-55
2022/03/04 17:08:47;;;;;;;5.90;4.40;;;23.60;43.60;;;;;;220291;1267;22522;-56
2022/03/04 17:13:51;;;;;;;8.40;4.80;;;23.60;43.30;;;;;;220432;1267;24195;-52
2022/03/04 17:19:03;;;;;;;6.40;4.90;;;23.70;43.00;;;;;;220328;1267;25237;-56
2022/03/04 17:24:11;;;;;;;7.80;4.60;;;23.70;42.70;;;;;;220963;1267;22615;-55
2022/03/04 17:29:19;;;;;;;7.20;4.40;;;23.80;42.60;;;;;;220254;1268;22561;-53
2022/03/04 17:34:55;;;;;;;7.20;4.70;;;23.90;42.30;;;;;;220730;1265;24533;-55
2022/03/04 17:40:05;;;;;;;7.70;4.60;;;23.80;42.10;;;;;;219986;1267;24363;-56
2022/03/04 17:45:13;;;;;;;10.60;4.60;;;23.90;41.80;;;;;;220482;1267;24331;-52
2022/03/04 17:50:28;;;;;;;10.00;5.00;;;23.90;41.80;;;;;;220149;1267;22757;-55
2022/03/04 17:55:45;;;;;;;11.50;7.30;;;24.00;41.60;;;;;;220261;1267;22532;-53
2022/03/04 18:00:52;;;;;;;10.20;7.50;;;24.10;41.80;;;;;;220500;1267;22567;-54
2022/03/04 18:05:57;;;;;;;11.30;6.70;;;24.30;42.10;;;;;;220203;1267;22770;-56
2022/03/04 18:11:07;;;;;;;11.50;7.50;;;24.30;41.70;;;;;;220832;1267;24300;-55
2022/03/04 18:16:13;;;;;;;10.70;7.60;;;24.30;41.40;;;;;;220532;1267;22544;-54
2022/03/04 18:21:27;;;;;;;13.40;6.40;;;24.10;40.40;;;;;;220092;1265;24441;-56
2022/03/04 18:26:34;;;;;;;12.90;6.80;;;23.90;40.70;;;;;;220071;1267;22551;-56
2022/03/04 18:31:40;;;;;;;12.00;6.20;;;23.80;40.90;;;;;;220525;1265;24279;-56
2022/03/04 18:36:45;;;;;;;11.60;6.90;;;23.80;41.40;;;;;;220091;1267;25464;-55
2022/03/04 18:41:51;;;;;;;12.90;6.70;;;23.60;41.90;;;;;;220324;1267;26575;-54
2022/03/04 18:47:08;;;;;;;11.40;6.60;;;23.50;42.10;;;;;;219960;1267;22525;-57
2022/03/04 18:52:28;;;;;;;11.60;6.20;;;23.40;42.10;;;;;;220120;1268;26144;-55
2022/03/04 18:57:37;;;;;;;11.30;6.20;;;23.30;42.60;;;;;;220368;1267;25643;-57
2022/03/04 19:02:46;;;;;;;14.20;7.00;;;23.30;42.60;;;;;;219676;1268;24453;-56
2022/03/04 19:07:52;;;;;;;17.30;7.20;;;23.20;42.80;;;;;;220327;1267;26086;-56
2022/03/04 19:13:00;;;;;;;23.10;7.30;;;23.10;43.00;;;;;;220426;1267;22567;-55
2022/03/04 19:18:06;;;;;;;13.50;6.60;;;23.10;43.30;;;;;;220206;1267;22554;-57
2022/03/04 19:23:12;;;;;;;12.50;6.50;;;23.00;43.20;;;;;;220167;1267;22548;-57
2022/03/04 19:28:19;;;;;;;13.90;7.00;;;22.90;43.70;;;;;;220357;1267;27922;-55
2022/03/04 19:33:28;;;;;;;12.10;6.70;;;22.90;44.70;;;;;;220321;1267;22608;-54
2022/03/04 19:38:32;;;;;;;13.90;6.30;;;22.90;45.10;;;;;;220255;1267;22669;-52
2022/03/04 19:43:40;;;;;;;10.80;6.30;;;22.80;44.80;;;;;;220283;1264;22560;-52
2022/03/04 19:48:44;;;;;;;59.30;34.10;;;22.80;44.30;;;;;;220603;1265;23166;-52
2022/03/04 19:53:57;;;;;;;74.00;44.70;;;22.70;44.10;;;;;;220309;1267;23013;-56
2022/03/04 19:59:04;;;;;;;89.40;53.00;;;22.70;43.10;;;;;;220335;1267;22585;-54
2022/03/04 20:04:11;;;;;;;74.90;43.70;;;22.60;44.20;;;;;;220578;1267;22548;-56
2022/03/04 20:09:47;;;;;;;67.40;38.30;;;22.70;44.50;;;;;;220231;1267;22533;-54
2022/03/04 20:14:53;;;;;;;66.70;38.00;;;22.60;45.20;;;;;;220134;1267;22771;-55
2022/03/04 20:20:03;;;;;;;59.50;38.60;;;22.60;44.60;;;;;;220368;1267;24461;-54
2022/03/04 20:25:11;;;;;;;56.40;36.30;;;22.50;44.60;;;;;;220288;1267;24224;-55
2022/03/04 20:30:15;;;;;;;58.60;36.50;;;22.40;44.80;;;;;;220415;1267;24434;-54
2022/03/04 20:35:20;;;;;;;57.70;33.80;;;22.30;44.90;;;;;;220425;1267;25422;-53
2022/03/04 20:40:31;;;;;;;60.10;31.80;;;22.30;44.70;;;;;;220595;1266;25451;-53
2022/03/04 20:45:50;;;;;;;49.30;29.40;;;22.30;45.40;;;;;;220511;1267;24805;-55
2022/03/04 20:51:03;;;;;;;53.10;28.40;;;22.30;45.10;;;;;;220546;1267;25688;-53
2022/03/04 20:56:30;;;;;;;55.30;31.20;;;22.40;45.10;;;;;;220146;1266;22587;-53
2022/03/04 21:01:36;;;;;;;48.30;28.10;;;22.30;45.00;;;;;;220158;1267;22551;-55
2022/03/04 21:06:51;;;;;;;45.90;26.80;;;22.30;45.20;;;;;;220392;1267;26499;-53
2022/03/04 21:12:00;;;;;;;41.30;26.00;;;22.40;45.10;;;;;;220573;1267;22525;-54
2022/03/04 21:17:32;;;;;;;43.60;26.10;;;22.60;44.20;;;;;;220139;1267;22528;-55
2022/03/04 21:22:49;;;;;;;47.50;23.70;;;22.90;43.60;;;;;;220450;1267;22534;-54
2022/03/04 21:28:11;;;;;;;36.30;23.00;;;23.00;43.00;;;;;;220647;1267;22578;-54
2022/03/04 21:33:22;;;;;;;38.10;22.30;;;23.00;42.70;;;;;;220117;1267;542640;-55
2022/03/04 21:38:32;;;;;;;42.70;21.50;;;23.20;42.40;;;;;;220035;1267;22544;-57
2022/03/04 21:43:57;;;;;;;33.60;20.10;;;23.40;43.30;;;;;;220588;1267;22764;-57
2022/03/04 21:49:15;;;;;;;37.40;20.60;;;23.40;42.70;;;;;;220134;1267;25390;-56
2022/03/04 21:54:42;;;;;;;41.50;19.80;;;23.50;42.40;;;;;;220349;1265;25410;-56
2022/03/04 21:59:54;;;;;;;35.80;19.30;;;23.50;42.60;;;;;;220050;1267;22586;-56
2022/03/04 22:05:36;;;;;;;32.00;19.40;;;23.70;42.20;;;;;;220514;1264;25245;-56
2022/03/04 22:10:57;;;;;;;32.30;18.90;;;23.80;42.10;;;;;;220290;1267;22518;-55
2022/03/04 22:16:12;;;;;;;29.70;18.40;;;23.80;42.00;;;;;;220510;1266;25628;-57
2022/03/04 22:21:17;;;;;;;32.80;19.60;;;23.70;41.90;;;;;;220306;1267;25344;-56
2022/03/04 22:26:21;;;;;;;32.90;18.00;;;23.70;41.90;;;;;;220209;1266;22718;-56
2022/03/04 22:31:32;;;;;;;29.50;17.50;;;23.80;42.10;;;;;;220410;1267;22630;-56
2022/03/04 22:36:36;;;;;;;30.30;17.70;;;23.80;42.40;;;;;;220362;1264;22625;-54
2022/03/04 22:41:43;;;;;;;32.30;16.80;;;23.80;43.40;;;;;;220236;1267;22675;-56
2022/03/04 22:46:51;;;;;;;29.80;17.40;;;23.90;43.10;;;;;;220219;1267;22619;-56
2022/03/04 22:51:58;;;;;;;23.20;15.60;;;23.90;43.00;;;;;;220141;1265;22715;-55
2022/03/04 22:57:02;;;;;;;33.40;17.30;;;24.00;42.90;;;;;;220120;1267;22550;-55
2022/03/04 23:02:06;;;;;;;24.70;15.90;;;24.00;42.80;;;;;;220212;1267;22524;-56
2022/03/04 23:12:34;;;;;;;25.40;15.30;;;24.10;42.90;;;;;;220189;1267;22552;-55
2022/03/04 23:17:41;;;;;;;23.20;16.00;;;24.00;43.00;;;;;;220350;1267;26584;-56
2022/03/04 23:22:45;;;;;;;23.50;14.20;;;23.90;43.20;;;;;;220165;1267;22575;-56
2022/03/04 23:27:49;;;;;;;21.00;13.80;;;23.80;43.40;;;;;;220074;1267;26716;-56
2022/03/04 23:33:01;;;;;;;25.20;14.20;;;23.80;43.90;;;;;;220341;1265;22544;-56
2022/03/04 23:38:05;;;;;;;21.50;14.40;;;23.60;43.80;;;;;;220078;1267;22659;-55
2022/03/04 23:43:12;;;;;;;24.60;14.70;;;23.50;44.40;;;;;;220070;1265;22535;-56
2022/03/04 23:48:21;;;;;;;25.20;14.90;;;23.40;44.40;;;;;;220117;1267;22584;-54
2022/03/04 23:53:26;;;;;;;22.00;13.90;;;23.30;44.50;;;;;;220327;1265;25626;-58
2022/03/04 23:58:34;;;;;;;19.80;13.30;;;23.20;44.70;;;;;;220490;1265;22534;-54
